createdAt,value
2022-09-23T00:02:27.539Z,7.11
2022-09-23T00:12:29.817Z,7.00
2022-09-23T00:22:32.067Z,6.99
2022-09-23T00:32:35.145Z,6.90
2022-09-23T00:42:37.399Z,6.79
2022-09-23T00:52:39.929Z,6.77
2022-09-23T01:02:42.318Z,6.68
2022-09-23T01:13:05.660Z,6.62
2022-09-23T01:23:20.991Z,6.60
2022-09-23T01:33:46.798Z,6.58
2022-09-23T01:44:01.159Z,6.61
2022-09-23T01:54:09.463Z,6.67
2022-09-23T02:04:30.792Z,6.57
2022-09-23T02:14:40.894Z,6.47
2022-09-23T02:24:43.271Z,6.42
2022-09-23T02:35:06.858Z,6.47
2022-09-23T02:45:09.353Z,6.46
2022-09-23T02:55:12.554Z,6.35
2022-09-23T03:05:30.439Z,6.25
2022-09-23T03:15:39.065Z,6.19
2022-09-23T03:25:46.071Z,6.16
2022-09-23T03:36:25.721Z,6.04
2022-09-23T03:46:30.486Z,5.96
2022-09-23T03:56:33.012Z,5.91
2022-09-23T04:06:35.896Z,5.88
2022-09-23T04:16:38.287Z,5.82
2022-09-23T04:26:41.616Z,5.92
2022-09-23T04:36:47.521Z,5.91
2022-09-23T04:46:50.412Z,5.90
2022-09-23T04:56:52.766Z,5.85
2022-09-23T05:06:56.624Z,5.81
2022-09-23T05:17:01.935Z,5.79
2022-09-23T05:27:07.431Z,5.81
2022-09-23T05:37:10.469Z,5.94
2022-09-23T05:47:13.320Z,6.03
2022-09-23T05:57:16.172Z,6.16
2022-09-23T06:07:18.650Z,6.37
2022-09-23T06:17:20.925Z,6.65
2022-09-23T06:27:23.334Z,6.93
2022-09-23T06:37:25.976Z,7.11
2022-09-23T06:47:29.772Z,7.35
2022-09-23T06:57:33.722Z,7.63
2022-09-23T07:07:40.160Z,7.99
2022-09-23T07:17:43.589Z,8.39
2022-09-23T07:27:48.094Z,8.79
2022-09-23T07:37:57.102Z,9.15
2022-09-23T07:48:00.493Z,9.60
2022-09-23T07:58:04.553Z,9.93
2022-09-23T08:08:08.407Z,10.39
2022-09-23T08:18:13.447Z,10.96
2022-09-23T08:28:20.408Z,11.46
2022-09-23T08:38:23.913Z,11.93
2022-09-23T08:48:35.028Z,12.28
2022-09-23T08:58:39.005Z,12.66
2022-09-23T09:08:44.952Z,13.15
2022-09-23T09:18:55.665Z,13.67
2022-09-23T09:29:31.136Z,14.10
2022-09-23T09:39:36.567Z,14.48
2022-09-23T09:49:50.034Z,14.76
2022-09-23T09:59:52.600Z,14.99
2022-09-23T10:09:58.333Z,15.15
2022-09-23T10:20:20.479Z,15.32
2022-09-23T10:30:26.315Z,15.61
2022-09-23T10:40:52.053Z,15.81
2022-09-23T10:50:56.161Z,16.11
2022-09-23T11:01:04.955Z,16.35
2022-09-23T11:11:34.467Z,16.58
2022-09-23T11:22:16.310Z,16.99
2022-09-23T11:32:41.984Z,17.69
2022-09-23T11:43:03.835Z,18.38
2022-09-23T11:53:16.718Z,19.00
2022-09-23T12:03:40.156Z,19.40
2022-09-23T12:14:01.881Z,19.75
2022-09-23T12:24:23.090Z,20.27
2022-09-23T12:34:38.551Z,20.64
2022-09-23T12:44:44.516Z,20.87
2022-09-23T12:54:52.743Z,20.88
2022-09-23T13:05:35.282Z,21.06
2022-09-23T13:15:39.614Z,21.55
2022-09-23T13:25:44.225Z,21.81
2022-09-23T13:35:52.378Z,21.79
2022-09-23T13:45:56.230Z,21.66
2022-09-23T13:56:06.871Z,21.60
2022-09-23T14:06:14.753Z,21.74
2022-09-23T14:16:18.767Z,21.57
2022-09-23T14:26:23.612Z,21.22
2022-09-23T14:36:44.966Z,20.84
2022-09-23T14:46:59.206Z,20.53
2022-09-23T14:57:06.632Z,20.31
2022-09-23T15:07:21.442Z,20.06
2022-09-23T15:17:23.871Z,19.92
2022-09-23T15:27:29.280Z,19.85
2022-09-23T15:37:36.204Z,19.78
2022-09-23T15:47:38.961Z,19.48
2022-09-23T15:57:41.452Z,19.12
2022-09-23T16:07:43.925Z,18.78
2022-09-23T16:17:46.731Z,18.42
2022-09-23T16:27:50.461Z,18.08
2022-09-23T16:37:53.323Z,17.68
2022-09-23T16:47:56.460Z,17.33
2022-09-23T16:57:59.285Z,17.03
2022-09-23T17:08:02.237Z,16.74
2022-09-23T17:18:06.693Z,16.46
2022-09-23T17:28:09.250Z,16.21
2022-09-23T17:38:11.696Z,15.96
2022-09-23T17:48:14.704Z,15.75
2022-09-23T17:58:17.567Z,15.56
2022-09-23T18:08:20.231Z,15.33
2022-09-23T18:18:22.863Z,15.12
2022-09-23T18:28:25.653Z,14.92
2022-09-23T18:38:28.446Z,14.74
2022-09-23T18:48:51.562Z,14.57
2022-09-23T18:58:55.711Z,14.45
2022-09-23T19:08:58.675Z,14.32
2022-09-23T19:19:02.550Z,14.21
2022-09-23T19:29:06.333Z,14.11
2022-09-23T19:39:15.298Z,14.08
2022-09-23T19:49:18.972Z,13.96
2022-09-23T19:59:21.534Z,13.87
2022-09-23T20:09:24.047Z,13.80
2022-09-23T20:19:26.856Z,13.72
2022-09-23T20:29:29.242Z,13.67
2022-09-23T20:39:31.997Z,13.62
2022-09-23T20:49:34.934Z,13.60
2022-09-23T20:59:38.542Z,13.48
2022-09-23T21:09:41.066Z,13.28
2022-09-23T21:19:43.528Z,13.03
2022-09-23T21:29:45.943Z,12.79
2022-09-23T21:40:11.425Z,12.64
2022-09-23T21:50:14.055Z,12.49
2022-09-23T22:00:16.484Z,12.41
2022-09-23T22:10:18.900Z,12.32
2022-09-23T22:20:21.355Z,12.28
2022-09-23T22:30:42.384Z,12.22
2022-09-23T22:40:44.841Z,12.20
2022-09-23T22:50:48.087Z,12.31
2022-09-23T23:00:51.907Z,12.43
2022-09-23T23:10:55.499Z,12.51
2022-09-23T23:21:06.661Z,12.54
2022-09-23T23:31:11.868Z,12.55
2022-09-23T23:41:17.112Z,12.58
2022-09-23T23:51:19.389Z,12.62
